sensor_id;sensor_type;location;lat;lon;timestamp;P1;durP1;ratioP1;P2;durP2;ratioP2
49764;SDS011;35657;51.204;-4.130;2023-04-26T00:02:02;4.93;;;2.03;;
49764;SDS011;35657;51.204;-4.130;2023-04-26T00:04:29;4.45;;;1.95;;
49764;SDS011;35657;51.204;-4.130;2023-04-26T00:06:55;7.53;;;1.60;;
49764;SDS011;35657;51.204;-4.130;2023-04-26T00:09:21;3.83;;;1.52;;
49764;SDS011;35657;51.204;-4.130;2023-04-26T00:11:47;3.78;;;1.70;;
49764;SDS011;35657;51.204;-4.130;2023-04-26T00:14:14;4.05;;;1.70;;
49764;SDS011;35657;51.204;-4.130;2023-04-26T00:16:41;3.28;;;1.40;;
49764;SDS011;35657;51.204;-4.130;2023-04-26T00:19:06;2.05;;;1.45;;
49764;SDS011;35657;51.204;-4.130;2023-04-26T00:21:34;7.40;;;1.45;;
49764;SDS011;35657;51.204;-4.130;2023-04-26T00:24:01;8.27;;;1.73;;
49764;SDS011;35657;51.204;-4.130;2023-04-26T00:26:26;5.50;;;1.75;;
49764;SDS011;35657;51.204;-4.130;2023-04-26T00:28:52;5.25;;;1.90;;
49764;SDS011;35657;51.204;-4.130;2023-04-26T00:31:18;5.55;;;2.42;;
49764;SDS011;35657;51.204;-4.130;2023-04-26T00:33:43;4.75;;;1.63;;
49764;SDS011;35657;51.204;-4.130;2023-04-26T00:36:09;3.38;;;1.33;;
49764;SDS011;35657;51.204;-4.130;2023-04-26T00:38:36;4.72;;;1.60;;
49764;SDS011;35657;51.204;-4.130;2023-04-26T00:41:02;4.95;;;1.50;;
49764;SDS011;35657;51.204;-4.130;2023-04-26T00:43:28;8.18;;;2.17;;
49764;SDS011;35657;51.204;-4.130;2023-04-26T00:45:54;5.38;;;1.65;;
49764;SDS011;35657;51.204;-4.130;2023-04-26T00:48:20;5.78;;;1.27;;
49764;SDS011;35657;51.204;-4.130;2023-04-26T00:50:46;5.13;;;1.52;;
49764;SDS011;35657;51.204;-4.130;2023-04-26T00:53:13;5.15;;;1.60;;
49764;SDS011;35657;51.204;-4.130;2023-04-26T00:55:40;3.30;;;1.33;;
49764;SDS011;35657;51.204;-4.130;2023-04-26T00:58:06;6.35;;;2.15;;
49764;SDS011;35657;51.204;-4.130;2023-04-26T01:00:32;6.97;;;1.27;;
49764;SDS011;35657;51.204;-4.130;2023-04-26T01:02:58;9.85;;;1.90;;
49764;SDS011;35657;51.204;-4.130;2023-04-26T01:05:24;3.38;;;1.48;;
49764;SDS011;35657;51.204;-4.130;2023-04-26T01:07:50;5.82;;;1.48;;
49764;SDS011;35657;51.204;-4.130;2023-04-26T01:10:16;5.20;;;1.67;;
49764;SDS011;35657;51.204;-4.130;2023-04-26T01:12:42;10.45;;;1.30;;
49764;SDS011;35657;51.204;-4.130;2023-04-26T01:15:09;3.70;;;1.77;;
49764;SDS011;35657;51.204;-4.130;2023-04-26T01:17:36;6.75;;;2.17;;
49764;SDS011;35657;51.204;-4.130;2023-04-26T01:20:03;13.30;;;2.00;;
49764;SDS011;35657;51.204;-4.130;2023-04-26T01:22:33;4.38;;;1.45;;
49764;SDS011;35657;51.204;-4.130;2023-04-26T01:24:58;5.03;;;1.67;;
49764;SDS011;35657;51.204;-4.130;2023-04-26T01:27:25;8.07;;;1.90;;
49764;SDS011;35657;51.204;-4.130;2023-04-26T01:29:51;4.22;;;1.17;;
49764;SDS011;35657;51.204;-4.130;2023-04-26T01:32:18;4.50;;;1.63;;
49764;SDS011;35657;51.204;-4.130;2023-04-26T01:34:43;4.75;;;1.73;;
49764;SDS011;35657;51.204;-4.130;2023-04-26T01:37:09;5.32;;;2.15;;
49764;SDS011;35657;51.204;-4.130;2023-04-26T01:39:35;3.05;;;1.70;;
49764;SDS011;35657;51.204;-4.130;2023-04-26T01:42:01;7.60;;;1.92;;
49764;SDS011;35657;51.204;-4.130;2023-04-26T01:44:29;2.97;;;1.20;;
49764;SDS011;35657;51.204;-4.130;2023-04-26T01:46:55;4.90;;;1.65;;
49764;SDS011;35657;51.204;-4.130;2023-04-26T01:49:21;7.30;;;1.38;;
49764;SDS011;35657;51.204;-4.130;2023-04-26T01:51:47;3.55;;;1.70;;
49764;SDS011;35657;51.204;-4.130;2023-04-26T01:54:13;11.10;;;2.03;;
49764;SDS011;35657;51.204;-4.130;2023-04-26T01:56:39;3.83;;;1.95;;
49764;SDS011;35657;51.204;-4.130;2023-04-26T01:59:05;2.42;;;1.13;;
49764;SDS011;35657;51.204;-4.130;2023-04-26T02:01:32;5.65;;;1.73;;
49764;SDS011;35657;51.204;-4.130;2023-04-26T02:03:57;4.15;;;1.42;;
49764;SDS011;35657;51.204;-4.130;2023-04-26T02:06:23;7.40;;;1.58;;
49764;SDS011;35657;51.204;-4.130;2023-04-26T02:08:49;4.70;;;1.63;;
49764;SDS011;35657;51.204;-4.130;2023-04-26T02:11:14;7.97;;;1.98;;
49764;SDS011;35657;51.204;-4.130;2023-04-26T02:13:40;2.85;;;1.00;;
49764;SDS011;35657;51.204;-4.130;2023-04-26T02:16:06;4.03;;;1.45;;
49764;SDS011;35657;51.204;-4.130;2023-04-26T02:18:32;5.47;;;1.80;;
49764;SDS011;35657;51.204;-4.130;2023-04-26T02:20:58;5.78;;;1.60;;
49764;SDS011;35657;51.204;-4.130;2023-04-26T02:23:24;6.55;;;1.90;;
49764;SDS011;35657;51.204;-4.130;2023-04-26T02:25:50;4.95;;;1.52;;
49764;SDS011;35657;51.204;-4.130;2023-04-26T02:28:16;3.78;;;1.88;;
49764;SDS011;35657;51.204;-4.130;2023-04-26T02:30:42;3.22;;;1.48;;
49764;SDS011;35657;51.204;-4.130;2023-04-26T02:33:08;7.60;;;2.67;;
49764;SDS011;35657;51.204;-4.130;2023-04-26T02:35:36;3.45;;;1.83;;
49764;SDS011;35657;51.204;-4.130;2023-04-26T02:38:01;2.45;;;0.90;;
49764;SDS011;35657;51.204;-4.130;2023-04-26T02:40:27;7.07;;;1.75;;
49764;SDS011;35657;51.204;-4.130;2023-04-26T02:42:54;8.15;;;2.00;;
49764;SDS011;35657;51.204;-4.130;2023-04-26T02:45:20;3.80;;;1.55;;
49764;SDS011;35657;51.204;-4.130;2023-04-26T02:47:46;4.53;;;1.92;;
49764;SDS011;35657;51.204;-4.130;2023-04-26T02:50:11;2.72;;;1.17;;
49764;SDS011;35657;51.204;-4.130;2023-04-26T02:52:37;4.18;;;1.70;;
49764;SDS011;35657;51.204;-4.130;2023-04-26T02:55:03;3.65;;;1.75;;
49764;SDS011;35657;51.204;-4.130;2023-04-26T02:57:30;4.95;;;1.50;;
49764;SDS011;35657;51.204;-4.130;2023-04-26T02:59:56;6.18;;;2.08;;
49764;SDS011;35657;51.204;-4.130;2023-04-26T03:02:22;5.90;;;1.92;;
49764;SDS011;35657;51.204;-4.130;2023-04-26T03:04:48;3.78;;;2.05;;
49764;SDS011;35657;51.204;-4.130;2023-04-26T03:07:14;4.88;;;1.98;;
49764;SDS011;35657;51.204;-4.130;2023-04-26T03:09:40;9.57;;;1.98;;
49764;SDS011;35657;51.204;-4.130;2023-04-26T03:12:06;2.75;;;1.50;;
49764;SDS011;35657;51.204;-4.130;2023-04-26T03:14:32;7.15;;;1.40;;
49764;SDS011;35657;51.204;-4.130;2023-04-26T03:16:58;5.47;;;2.08;;
49764;SDS011;35657;51.204;-4.130;2023-04-26T03:19:24;6.32;;;2.10;;
49764;SDS011;35657;51.204;-4.130;2023-04-26T03:21:54;18.17;;;2.30;;
49764;SDS011;35657;51.204;-4.130;2023-04-26T03:24:19;5.32;;;2.35;;
49764;SDS011;35657;51.204;-4.130;2023-04-26T03:26:45;8.77;;;2.60;;
49764;SDS011;35657;51.204;-4.130;2023-04-26T03:29:11;7.68;;;2.42;;
49764;SDS011;35657;51.204;-4.130;2023-04-26T03:31:37;5.75;;;2.20;;
49764;SDS011;35657;51.204;-4.130;2023-04-26T03:34:03;12.60;;;2.03;;
49764;SDS011;35657;51.204;-4.130;2023-04-26T03:36:30;10.82;;;3.15;;
49764;SDS011;35657;51.204;-4.130;2023-04-26T03:38:56;5.15;;;1.80;;
49764;SDS011;35657;51.204;-4.130;2023-04-26T03:41:21;8.35;;;2.35;;
49764;SDS011;35657;51.204;-4.130;2023-04-26T03:43:47;7.97;;;2.55;;
49764;SDS011;35657;51.204;-4.130;2023-04-26T03:46:15;3.85;;;2.10;;
49764;SDS011;35657;51.204;-4.130;2023-04-26T03:48:40;7.72;;;2.38;;
49764;SDS011;35657;51.204;-4.130;2023-04-26T03:51:06;6.47;;;1.75;;
49764;SDS011;35657;51.204;-4.130;2023-04-26T03:53:32;7.65;;;2.10;;
49764;SDS011;35657;51.204;-4.130;2023-04-26T03:55:57;5.28;;;1.90;;
49764;SDS011;35657;51.204;-4.130;2023-04-26T03:58:24;4.55;;;1.90;;
49764;SDS011;35657;51.204;-4.130;2023-04-26T04:00:50;7.38;;;2.58;;
49764;SDS011;35657;51.204;-4.130;2023-04-26T04:03:16;10.32;;;2.20;;
49764;SDS011;35657;51.204;-4.130;2023-04-26T04:05:42;11.52;;;2.63;;
49764;SDS011;35657;51.204;-4.130;2023-04-26T04:08:07;7.63;;;2.05;;
49764;SDS011;35657;51.204;-4.130;2023-04-26T04:10:33;4.63;;;2.10;;
49764;SDS011;35657;51.204;-4.130;2023-04-26T04:13:00;9.15;;;2.28;;
49764;SDS011;35657;51.204;-4.130;2023-04-26T04:15:25;9.10;;;2.20;;
49764;SDS011;35657;51.204;-4.130;2023-04-26T04:17:51;4.32;;;1.88;;
49764;SDS011;35657;51.204;-4.130;2023-04-26T04:20:17;7.03;;;1.88;;
49764;SDS011;35657;51.204;-4.130;2023-04-26T04:22:44;6.05;;;2.60;;
49764;SDS011;35657;51.204;-4.130;2023-04-26T04:25:10;7.07;;;2.20;;
49764;SDS011;35657;51.204;-4.130;2023-04-26T04:27:35;2.97;;;1.70;;
49764;SDS011;35657;51.204;-4.130;2023-04-26T04:30:02;7.57;;;2.20;;
49764;SDS011;35657;51.204;-4.130;2023-04-26T04:32:31;6.47;;;2.90;;
49764;SDS011;35657;51.204;-4.130;2023-04-26T04:34:57;5.78;;;1.73;;
49764;SDS011;35657;51.204;-4.130;2023-04-26T04:37:23;5.88;;;1.63;;
49764;SDS011;35657;51.204;-4.130;2023-04-26T04:39:50;7.30;;;1.63;;
49764;SDS011;35657;51.204;-4.130;2023-04-26T04:42:17;5.60;;;1.70;;
49764;SDS011;35657;51.204;-4.130;2023-04-26T04:44:43;7.00;;;1.65;;
49764;SDS011;35657;51.204;-4.130;2023-04-26T04:47:10;5.00;;;1.80;;
49764;SDS011;35657;51.204;-4.130;2023-04-26T04:49:36;8.02;;;1.92;;
49764;SDS011;35657;51.204;-4.130;2023-04-26T04:52:02;7.65;;;2.78;;
49764;SDS011;35657;51.204;-4.130;2023-04-26T04:54:28;7.63;;;2.20;;
49764;SDS011;35657;51.204;-4.130;2023-04-26T04:56:54;5.93;;;1.85;;
49764;SDS011;35657;51.204;-4.130;2023-04-26T04:59:21;9.60;;;2.05;;
49764;SDS011;35657;51.204;-4.130;2023-04-26T05:01:47;10.15;;;2.20;;
49764;SDS011;35657;51.204;-4.130;2023-04-26T05:04:13;8.40;;;2.20;;
49764;SDS011;35657;51.204;-4.130;2023-04-26T05:06:40;8.27;;;1.77;;
49764;SDS011;35657;51.204;-4.130;2023-04-26T05:09:06;7.10;;;2.10;;
49764;SDS011;35657;51.204;-4.130;2023-04-26T05:11:33;6.60;;;2.20;;
49764;SDS011;35657;51.204;-4.130;2023-04-26T05:13:59;7.28;;;1.75;;
49764;SDS011;35657;51.204;-4.130;2023-04-26T05:16:25;4.60;;;1.60;;
49764;SDS011;35657;51.204;-4.130;2023-04-26T05:18:51;8.10;;;1.90;;
49764;SDS011;35657;51.204;-4.130;2023-04-26T05:21:17;6.65;;;1.60;;
49764;SDS011;35657;51.204;-4.130;2023-04-26T05:23:42;3.17;;;1.90;;
49764;SDS011;35657;51.204;-4.130;2023-04-26T05:26:15;5.22;;;1.63;;
49764;SDS011;35657;51.204;-4.130;2023-04-26T05:28:41;4.47;;;1.63;;
49764;SDS011;35657;51.204;-4.130;2023-04-26T05:31:08;8.13;;;2.95;;
49764;SDS011;35657;51.204;-4.130;2023-04-26T05:33:34;5.47;;;1.92;;
49764;SDS011;35657;51.204;-4.130;2023-04-26T05:36:00;4.03;;;1.35;;
49764;SDS011;35657;51.204;-4.130;2023-04-26T05:38:26;5.43;;;1.55;;
49764;SDS011;35657;51.204;-4.130;2023-04-26T05:40:52;4.78;;;1.40;;
49764;SDS011;35657;51.204;-4.130;2023-04-26T05:43:18;3.50;;;1.85;;
49764;SDS011;35657;51.204;-4.130;2023-04-26T05:45:53;10.65;;;1.98;;
49764;SDS011;35657;51.204;-4.130;2023-04-26T05:48:20;4.07;;;1.73;;
49764;SDS011;35657;51.204;-4.130;2023-04-26T05:50:46;7.28;;;1.98;;
49764;SDS011;35657;51.204;-4.130;2023-04-26T05:53:13;7.55;;;2.20;;
49764;SDS011;35657;51.204;-4.130;2023-04-26T05:55:41;6.03;;;2.15;;
49764;SDS011;35657;51.204;-4.130;2023-04-26T05:58:07;7.32;;;1.80;;
49764;SDS011;35657;51.204;-4.130;2023-04-26T06:00:33;11.82;;;2.90;;
49764;SDS011;35657;51.204;-4.130;2023-04-26T06:02:59;4.45;;;2.05;;
49764;SDS011;35657;51.204;-4.130;2023-04-26T06:05:25;5.38;;;1.75;;
49764;SDS011;35657;51.204;-4.130;2023-04-26T06:07:51;6.32;;;2.15;;
49764;SDS011;35657;51.204;-4.130;2023-04-26T06:10:17;5.75;;;1.90;;
49764;SDS011;35657;51.204;-4.130;2023-04-26T06:12:43;4.63;;;1.80;;
49764;SDS011;35657;51.204;-4.130;2023-04-26T06:15:10;4.68;;;2.10;;
49764;SDS011;35657;51.204;-4.130;2023-04-26T06:17:36;8.13;;;2.47;;
49764;SDS011;35657;51.204;-4.130;2023-04-26T06:20:02;8.77;;;2.50;;
49764;SDS011;35657;51.204;-4.130;2023-04-26T06:22:29;5.45;;;2.10;;
49764;SDS011;35657;51.204;-4.130;2023-04-26T06:24:55;9.40;;;2.05;;
49764;SDS011;35657;51.204;-4.130;2023-04-26T06:27:20;10.35;;;3.08;;
49764;SDS011;35657;51.204;-4.130;2023-04-26T06:29:46;10.50;;;1.65;;
49764;SDS011;35657;51.204;-4.130;2023-04-26T06:32:12;7.07;;;2.47;;
49764;SDS011;35657;51.204;-4.130;2023-04-26T06:34:38;4.75;;;1.63;;
49764;SDS011;35657;51.204;-4.130;2023-04-26T06:37:04;4.95;;;2.53;;
49764;SDS011;35657;51.204;-4.130;2023-04-26T06:39:30;6.95;;;1.98;;
49764;SDS011;35657;51.204;-4.130;2023-04-26T06:41:55;5.70;;;1.77;;
49764;SDS011;35657;51.204;-4.130;2023-04-26T06:44:21;8.48;;;2.55;;
49764;SDS011;35657;51.204;-4.130;2023-04-26T06:46:47;10.07;;;2.55;;
49764;SDS011;35657;51.204;-4.130;2023-04-26T06:49:13;4.45;;;2.25;;
49764;SDS011;35657;51.204;-4.130;2023-04-26T06:51:40;6.30;;;2.33;;
49764;SDS011;35657;51.204;-4.130;2023-04-26T06:54:05;9.35;;;2.47;;
49764;SDS011;35657;51.204;-4.130;2023-04-26T06:56:31;5.32;;;2.45;;
49764;SDS011;35657;51.204;-4.130;2023-04-26T06:58:58;7.50;;;2.50;;
49764;SDS011;35657;51.204;-4.130;2023-04-26T07:01:28;5.90;;;2.20;;
49764;SDS011;35657;51.204;-4.130;2023-04-26T07:03:57;10.07;;;2.30;;
49764;SDS011;35657;51.204;-4.130;2023-04-26T07:06:34;9.25;;;2.22;;
49764;SDS011;35657;51.204;-4.130;2023-04-26T07:09:01;20.10;;;3.42;;
49764;SDS011;35657;51.204;-4.130;2023-04-26T07:11:28;7.70;;;2.88;;
49764;SDS011;35657;51.204;-4.130;2023-04-26T07:13:54;6.63;;;2.70;;
49764;SDS011;35657;51.204;-4.130;2023-04-26T07:16:20;7.50;;;2.50;;
49764;SDS011;35657;51.204;-4.130;2023-04-26T07:18:46;11.60;;;4.18;;
49764;SDS011;35657;51.204;-4.130;2023-04-26T07:21:12;5.43;;;2.70;;
49764;SDS011;35657;51.204;-4.130;2023-04-26T07:23:39;14.52;;;3.53;;
49764;SDS011;35657;51.204;-4.130;2023-04-26T07:26:04;8.75;;;2.58;;
49764;SDS011;35657;51.204;-4.130;2023-04-26T07:28:31;12.07;;;2.50;;
49764;SDS011;35657;51.204;-4.130;2023-04-26T07:30:57;6.82;;;2.65;;
49764;SDS011;35657;51.204;-4.130;2023-04-26T07:33:24;4.72;;;3.03;;
49764;SDS011;35657;51.204;-4.130;2023-04-26T07:35:57;8.25;;;2.92;;
49764;SDS011;35657;51.204;-4.130;2023-04-26T07:38:25;6.53;;;3.15;;
49764;SDS011;35657;51.204;-4.130;2023-04-26T07:40:51;13.82;;;3.63;;
49764;SDS011;35657;51.204;-4.130;2023-04-26T07:43:17;13.70;;;3.13;;
49764;SDS011;35657;51.204;-4.130;2023-04-26T07:45:44;11.95;;;3.63;;
49764;SDS011;35657;51.204;-4.130;2023-04-26T07:48:10;11.73;;;4.53;;
49764;SDS011;35657;51.204;-4.130;2023-04-26T07:50:36;10.40;;;3.78;;
49764;SDS011;35657;51.204;-4.130;2023-04-26T07:53:02;14.18;;;3.85;;
49764;SDS011;35657;51.204;-4.130;2023-04-26T07:55:28;14.68;;;3.50;;
49764;SDS011;35657;51.204;-4.130;2023-04-26T07:57:54;8.07;;;3.90;;
49764;SDS011;35657;51.204;-4.130;2023-04-26T08:00:20;8.60;;;3.28;;
49764;SDS011;35657;51.204;-4.130;2023-04-26T08:02:48;13.25;;;3.88;;
49764;SDS011;35657;51.204;-4.130;2023-04-26T08:05:14;9.13;;;3.70;;
49764;SDS011;35657;51.204;-4.130;2023-04-26T08:07:41;8.52;;;3.38;;
49764;SDS011;35657;51.204;-4.130;2023-04-26T08:10:07;9.90;;;3.63;;
49764;SDS011;35657;51.204;-4.130;2023-04-26T08:12:33;10.90;;;3.05;;
49764;SDS011;35657;51.204;-4.130;2023-04-26T08:15:02;13.27;;;4.22;;
49764;SDS011;35657;51.204;-4.130;2023-04-26T08:17:32;17.60;;;4.20;;
49764;SDS011;35657;51.204;-4.130;2023-04-26T08:19:58;10.68;;;3.00;;
49764;SDS011;35657;51.204;-4.130;2023-04-26T08:22:24;8.95;;;4.28;;
49764;SDS011;35657;51.204;-4.130;2023-04-26T08:24:51;14.45;;;4.18;;
49764;SDS011;35657;51.204;-4.130;2023-04-26T08:27:18;9.57;;;2.88;;
49764;SDS011;35657;51.204;-4.130;2023-04-26T08:29:45;8.70;;;2.88;;
49764;SDS011;35657;51.204;-4.130;2023-04-26T08:32:10;8.32;;;3.70;;
49764;SDS011;35657;51.204;-4.130;2023-04-26T08:34:36;13.13;;;3.90;;
49764;SDS011;35657;51.204;-4.130;2023-04-26T08:37:02;10.27;;;4.70;;
49764;SDS011;35657;51.204;-4.130;2023-04-26T08:39:29;14.52;;;5.28;;
49764;SDS011;35657;51.204;-4.130;2023-04-26T08:41:55;11.48;;;5.32;;
49764;SDS011;35657;51.204;-4.130;2023-04-26T08:44:41;10.02;;;4.35;;
49764;SDS011;35657;51.204;-4.130;2023-04-26T08:49:43;7.03;;;3.63;;
49764;SDS011;35657;51.204;-4.130;2023-04-26T08:52:11;10.20;;;3.90;;
49764;SDS011;35657;51.204;-4.130;2023-04-26T08:54:39;14.43;;;5.35;;
49764;SDS011;35657;51.204;-4.130;2023-04-26T08:57:06;11.02;;;4.93;;
49764;SDS011;35657;51.204;-4.130;2023-04-26T08:59:34;10.57;;;3.80;;
49764;SDS011;35657;51.204;-4.130;2023-04-26T09:02:01;13.95;;;5.55;;
49764;SDS011;35657;51.204;-4.130;2023-04-26T09:04:29;14.85;;;5.03;;
49764;SDS011;35657;51.204;-4.130;2023-04-26T09:06:58;9.90;;;4.20;;
49764;SDS011;35657;51.204;-4.130;2023-04-26T09:09:35;15.23;;;4.20;;
49764;SDS011;35657;51.204;-4.130;2023-04-26T09:12:06;11.55;;;4.10;;
49764;SDS011;35657;51.204;-4.130;2023-04-26T09:14:32;13.57;;;4.35;;
49764;SDS011;35657;51.204;-4.130;2023-04-26T09:16:59;11.48;;;4.47;;
49764;SDS011;35657;51.204;-4.130;2023-04-26T09:19:34;10.75;;;4.50;;
49764;SDS011;35657;51.204;-4.130;2023-04-26T09:22:06;12.23;;;4.82;;
49764;SDS011;35657;51.204;-4.130;2023-04-26T09:24:53;14.80;;;5.20;;
49764;SDS011;35657;51.204;-4.130;2023-04-26T09:27:19;11.60;;;5.50;;
49764;SDS011;35657;51.204;-4.130;2023-04-26T09:30:18;15.85;;;4.63;;
49764;SDS011;35657;51.204;-4.130;2023-04-26T09:37:59;11.77;;;5.45;;
49764;SDS011;35657;51.204;-4.130;2023-04-26T09:40:29;15.70;;;5.93;;
49764;SDS011;35657;51.204;-4.130;2023-04-26T09:45:32;9.80;;;4.60;;
49764;SDS011;35657;51.204;-4.130;2023-04-26T09:50:50;9.50;;;4.85;;
49764;SDS011;35657;51.204;-4.130;2023-04-26T09:53:32;12.07;;;4.60;;
49764;SDS011;35657;51.204;-4.130;2023-04-26T09:56:11;16.85;;;5.22;;
49764;SDS011;35657;51.204;-4.130;2023-04-26T10:01:17;13.93;;;6.32;;
49764;SDS011;35657;51.204;-4.130;2023-04-26T10:03:44;13.00;;;6.15;;
49764;SDS011;35657;51.204;-4.130;2023-04-26T10:06:14;15.30;;;7.03;;
49764;SDS011;35657;51.204;-4.130;2023-04-26T10:08:40;9.70;;;5.50;;
49764;SDS011;35657;51.204;-4.130;2023-04-26T10:11:06;12.43;;;6.60;;
49764;SDS011;35657;51.204;-4.130;2023-04-26T10:13:34;7.85;;;5.53;;
49764;SDS011;35657;51.204;-4.130;2023-04-26T10:16:00;13.55;;;5.68;;
49764;SDS011;35657;51.204;-4.130;2023-04-26T10:18:26;14.93;;;6.90;;
49764;SDS011;35657;51.204;-4.130;2023-04-26T10:20:52;12.82;;;6.22;;
49764;SDS011;35657;51.204;-4.130;2023-04-26T10:23:22;13.90;;;6.00;;
49764;SDS011;35657;51.204;-4.130;2023-04-26T10:25:51;9.70;;;5.03;;
49764;SDS011;35657;51.204;-4.130;2023-04-26T10:28:52;12.75;;;5.80;;
49764;SDS011;35657;51.204;-4.130;2023-04-26T10:31:04;12.68;;;5.32;;
49764;SDS011;35657;51.204;-4.130;2023-04-26T10:33:31;10.57;;;6.07;;
49764;SDS011;35657;51.204;-4.130;2023-04-26T10:36:07;13.18;;;6.55;;
49764;SDS011;35657;51.204;-4.130;2023-04-26T10:38:35;8.77;;;5.75;;
49764;SDS011;35657;51.204;-4.130;2023-04-26T10:47:06;12.52;;;5.93;;
49764;SDS011;35657;51.204;-4.130;2023-04-26T10:49:45;11.23;;;5.65;;
49764;SDS011;35657;51.204;-4.130;2023-04-26T10:52:13;12.05;;;5.03;;
49764;SDS011;35657;51.204;-4.130;2023-04-26T10:54:44;12.23;;;5.20;;
49764;SDS011;35657;51.204;-4.130;2023-04-26T10:57:10;11.05;;;4.63;;
49764;SDS011;35657;51.204;-4.130;2023-04-26T10:59:36;9.70;;;5.00;;
49764;SDS011;35657;51.204;-4.130;2023-04-26T11:02:02;11.75;;;6.05;;
49764;SDS011;35657;51.204;-4.130;2023-04-26T11:07:16;12.30;;;4.88;;
49764;SDS011;35657;51.204;-4.130;2023-04-26T11:10:01;9.18;;;4.50;;
49764;SDS011;35657;51.204;-4.130;2023-04-26T11:12:27;8.63;;;4.97;;
49764;SDS011;35657;51.204;-4.130;2023-04-26T11:14:52;8.73;;;4.85;;
49764;SDS011;35657;51.204;-4.130;2023-04-26T11:17:20;13.07;;;5.22;;
49764;SDS011;35657;51.204;-4.130;2023-04-26T11:19:46;11.88;;;5.35;;
49764;SDS011;35657;51.204;-4.130;2023-04-26T11:22:12;15.65;;;5.03;;
49764;SDS011;35657;51.204;-4.130;2023-04-26T11:24:38;10.90;;;5.50;;
49764;SDS011;35657;51.204;-4.130;2023-04-26T11:27:10;9.30;;;4.68;;
49764;SDS011;35657;51.204;-4.130;2023-04-26T11:29:36;9.00;;;4.72;;
49764;SDS011;35657;51.204;-4.130;2023-04-26T11:32:02;11.20;;;5.15;;
49764;SDS011;35657;51.204;-4.130;2023-04-26T11:34:32;9.20;;;4.60;;
49764;SDS011;35657;51.204;-4.130;2023-04-26T11:37:02;15.38;;;4.80;;
49764;SDS011;35657;51.204;-4.130;2023-04-26T11:39:32;13.13;;;5.28;;
49764;SDS011;35657;51.204;-4.130;2023-04-26T11:42:05;10.38;;;5.20;;
49764;SDS011;35657;51.204;-4.130;2023-04-26T11:44:35;10.55;;;5.03;;
49764;SDS011;35657;51.204;-4.130;2023-04-26T11:47:01;14.57;;;6.18;;
49764;SDS011;35657;51.204;-4.130;2023-04-26T11:49:28;11.63;;;5.03;;
49764;SDS011;35657;51.204;-4.130;2023-04-26T11:51:59;11.80;;;5.28;;
49764;SDS011;35657;51.204;-4.130;2023-04-26T11:54:26;9.20;;;4.55;;
49764;SDS011;35657;51.204;-4.130;2023-04-26T11:56:53;10.38;;;5.05;;
49764;SDS011;35657;51.204;-4.130;2023-04-26T11:59:22;8.07;;;4.50;;
49764;SDS011;35657;51.204;-4.130;2023-04-26T12:01:49;8.57;;;4.38;;
49764;SDS011;35657;51.204;-4.130;2023-04-26T12:04:15;10.88;;;5.63;;
49764;SDS011;35657;51.204;-4.130;2023-04-26T12:06:42;10.80;;;5.43;;
49764;SDS011;35657;51.204;-4.130;2023-04-26T12:09:08;10.85;;;4.72;;
49764;SDS011;35657;51.204;-4.130;2023-04-26T12:11:38;13.50;;;5.60;;
49764;SDS011;35657;51.204;-4.130;2023-04-26T12:14:04;12.23;;;4.60;;
49764;SDS011;35657;51.204;-4.130;2023-04-26T12:16:33;8.52;;;5.03;;
49764;SDS011;35657;51.204;-4.130;2023-04-26T12:19:03;9.43;;;4.45;;
49764;SDS011;35657;51.204;-4.130;2023-04-26T12:21:41;12.45;;;5.00;;
49764;SDS011;35657;51.204;-4.130;2023-04-26T12:24:20;10.18;;;4.63;;
49764;SDS011;35657;51.204;-4.130;2023-04-26T12:26:49;9.75;;;5.13;;
49764;SDS011;35657;51.204;-4.130;2023-04-26T12:29:16;10.20;;;4.95;;
49764;SDS011;35657;51.204;-4.130;2023-04-26T12:31:41;9.30;;;5.03;;
49764;SDS011;35657;51.204;-4.130;2023-04-26T12:34:07;9.88;;;4.82;;
49764;SDS011;35657;51.204;-4.130;2023-04-26T12:36:33;8.20;;;5.18;;
49764;SDS011;35657;51.204;-4.130;2023-04-26T12:38:59;9.30;;;5.55;;
49764;SDS011;35657;51.204;-4.130;2023-04-26T12:41:27;11.68;;;4.43;;
49764;SDS011;35657;51.204;-4.130;2023-04-26T12:43:53;8.38;;;4.40;;
49764;SDS011;35657;51.204;-4.130;2023-04-26T12:46:19;8.82;;;4.68;;
49764;SDS011;35657;51.204;-4.130;2023-04-26T12:48:45;8.75;;;4.95;;
49764;SDS011;35657;51.204;-4.130;2023-04-26T12:51:11;8.50;;;4.82;;
49764;SDS011;35657;51.204;-4.130;2023-04-26T12:53:36;12.27;;;5.50;;
49764;SDS011;35657;51.204;-4.130;2023-04-26T12:56:02;12.15;;;6.05;;
49764;SDS011;35657;51.204;-4.130;2023-04-26T12:58:28;5.63;;;3.17;;
49764;SDS011;35657;51.204;-4.130;2023-04-26T13:00:54;14.93;;;5.93;;
49764;SDS011;35657;51.204;-4.130;2023-04-26T13:03:20;12.15;;;5.95;;
49764;SDS011;35657;51.204;-4.130;2023-04-26T13:05:46;9.25;;;4.68;;
49764;SDS011;35657;51.204;-4.130;2023-04-26T13:08:11;4.90;;;2.42;;
49764;SDS011;35657;51.204;-4.130;2023-04-26T13:10:37;18.98;;;9.40;;
49764;SDS011;35657;51.204;-4.130;2023-04-26T13:13:03;17.13;;;8.23;;
49764;SDS011;35657;51.204;-4.130;2023-04-26T13:15:28;7.63;;;4.57;;
49764;SDS011;35657;51.204;-4.130;2023-04-26T13:17:54;12.25;;;6.35;;
49764;SDS011;35657;51.204;-4.130;2023-04-26T13:20:20;6.55;;;3.72;;
49764;SDS011;35657;51.204;-4.130;2023-04-26T13:22:46;10.48;;;6.18;;
49764;SDS011;35657;51.204;-4.130;2023-04-26T13:25:11;9.68;;;4.28;;
49764;SDS011;35657;51.204;-4.130;2023-04-26T13:27:39;16.55;;;5.57;;
49764;SDS011;35657;51.204;-4.130;2023-04-26T13:30:05;9.90;;;3.42;;
49764;SDS011;35657;51.204;-4.130;2023-04-26T13:32:31;10.80;;;5.15;;
49764;SDS011;35657;51.204;-4.130;2023-04-26T13:34:57;11.73;;;4.35;;
49764;SDS011;35657;51.204;-4.130;2023-04-26T13:37:23;11.43;;;5.43;;
49764;SDS011;35657;51.204;-4.130;2023-04-26T13:39:49;8.40;;;4.45;;
49764;SDS011;35657;51.204;-4.130;2023-04-26T13:42:15;4.05;;;2.28;;
49764;SDS011;35657;51.204;-4.130;2023-04-26T13:44:41;10.18;;;5.07;;
49764;SDS011;35657;51.204;-4.130;2023-04-26T13:47:07;2.78;;;1.73;;
49764;SDS011;35657;51.204;-4.130;2023-04-26T13:49:33;11.10;;;6.30;;
49764;SDS011;35657;51.204;-4.130;2023-04-26T13:51:58;9.82;;;5.80;;
49764;SDS011;35657;51.204;-4.130;2023-04-26T13:54:24;11.20;;;6.85;;
49764;SDS011;35657;51.204;-4.130;2023-04-26T13:56:50;3.42;;;2.03;;
49764;SDS011;35657;51.204;-4.130;2023-04-26T13:59:16;7.10;;;2.90;;
49764;SDS011;35657;51.204;-4.130;2023-04-26T14:01:42;16.10;;;5.38;;
49764;SDS011;35657;51.204;-4.130;2023-04-26T14:04:08;12.15;;;5.47;;
49764;SDS011;35657;51.204;-4.130;2023-04-26T14:06:34;10.30;;;5.65;;
49764;SDS011;35657;51.204;-4.130;2023-04-26T14:09:00;9.93;;;5.10;;
49764;SDS011;35657;51.204;-4.130;2023-04-26T14:11:28;15.65;;;6.25;;
49764;SDS011;35657;51.204;-4.130;2023-04-26T14:13:54;11.93;;;6.10;;
49764;SDS011;35657;51.204;-4.130;2023-04-26T14:16:23;14.40;;;6.70;;
49764;SDS011;35657;51.204;-4.130;2023-04-26T14:18:50;9.23;;;5.47;;
49764;SDS011;35657;51.204;-4.130;2023-04-26T14:21:16;11.60;;;5.70;;
49764;SDS011;35657;51.204;-4.130;2023-04-26T14:23:42;11.50;;;5.28;;
49764;SDS011;35657;51.204;-4.130;2023-04-26T14:26:08;11.10;;;5.93;;
49764;SDS011;35657;51.204;-4.130;2023-04-26T14:28:34;14.35;;;7.65;;
49764;SDS011;35657;51.204;-4.130;2023-04-26T14:31:00;19.15;;;7.53;;
49764;SDS011;35657;51.204;-4.130;2023-04-26T14:33:26;9.85;;;5.30;;
49764;SDS011;35657;51.204;-4.130;2023-04-26T14:35:52;18.10;;;5.43;;
49764;SDS011;35657;51.204;-4.130;2023-04-26T14:38:18;8.70;;;5.30;;
49764;SDS011;35657;51.204;-4.130;2023-04-26T14:40:45;17.83;;;7.63;;
49764;SDS011;35657;51.204;-4.130;2023-04-26T14:43:11;14.43;;;6.50;;
49764;SDS011;35657;51.204;-4.130;2023-04-26T14:45:36;8.23;;;4.00;;
49764;SDS011;35657;51.204;-4.130;2023-04-26T14:48:02;11.20;;;5.28;;
49764;SDS011;35657;51.204;-4.130;2023-04-26T14:50:28;12.65;;;4.55;;
49764;SDS011;35657;51.204;-4.130;2023-04-26T14:52:54;4.20;;;3.25;;
49764;SDS011;35657;51.204;-4.130;2023-04-26T14:55:20;13.00;;;5.57;;